createdAt,value
2023-01-06T00:00:34.081Z,18.35
2023-01-06T00:03:02.590Z,18.17
2023-01-06T00:05:30.058Z,16.73
2023-01-06T00:07:57.472Z,19.27
2023-01-06T00:10:24.691Z,17.83
2023-01-06T00:12:52.372Z,17.38
2023-01-06T00:15:19.657Z,16.88
2023-01-06T00:17:46.831Z,17.08
2023-01-06T00:20:14.481Z,16.67
2023-01-06T00:22:41.960Z,16.92
2023-01-06T00:25:10.410Z,15.73
2023-01-06T00:27:38.015Z,14.55
2023-01-06T00:30:07.255Z,15.02
2023-01-06T00:32:34.408Z,13.18
2023-01-06T00:35:01.709Z,14.10
2023-01-06T00:37:28.870Z,12.93
2023-01-06T00:39:56.008Z,12.93
2023-01-06T00:42:24.707Z,12.05
2023-01-06T00:44:51.935Z,11.90
2023-01-06T00:47:19.679Z,12.13
2023-01-06T00:49:46.952Z,11.63
2023-01-06T00:52:14.373Z,10.38
2023-01-06T00:54:41.834Z,10.43
2023-01-06T00:57:08.962Z,10.40
2023-01-06T00:59:36.395Z,10.40
2023-01-06T01:02:03.992Z,11.10
2023-01-06T01:04:31.258Z,9.10
2023-01-06T01:06:59.211Z,8.98
2023-01-06T01:09:27.858Z,9.43
2023-01-06T01:12:10.394Z,8.50
2023-01-06T01:14:44.803Z,9.90
2023-01-06T01:17:12.997Z,9.10
2023-01-06T01:19:40.411Z,9.32
2023-01-06T01:22:08.070Z,9.18
2023-01-06T01:24:37.280Z,9.27
2023-01-06T01:27:06.105Z,8.35
2023-01-06T01:29:33.499Z,8.13
2023-01-06T01:32:00.790Z,7.95
2023-01-06T01:34:28.435Z,8.85
2023-01-06T01:36:56.647Z,8.07
2023-01-06T01:39:25.483Z,7.75
2023-01-06T01:41:52.628Z,8.75
2023-01-06T01:44:38.501Z,8.13
2023-01-06T01:47:05.602Z,8.38
2023-01-06T01:49:35.913Z,7.18
2023-01-06T01:52:03.052Z,7.28
2023-01-06T01:54:32.215Z,7.15
2023-01-06T01:57:01.489Z,7.50
2023-01-06T01:59:30.096Z,7.40
2023-01-06T02:01:57.685Z,7.72
2023-01-06T02:04:43.468Z,7.53
2023-01-06T02:07:11.234Z,7.22
2023-01-06T02:09:45.468Z,6.82
2023-01-06T02:12:12.919Z,7.57
2023-01-06T02:14:41.009Z,6.93
2023-01-06T02:17:10.961Z,6.85
2023-01-06T02:19:56.806Z,6.85
2023-01-06T02:22:26.742Z,6.40
2023-01-06T02:25:02.782Z,7.20
2023-01-06T02:27:36.557Z,7.38
2023-01-06T02:30:09.761Z,7.40
2023-01-06T02:32:38.459Z,8.65
2023-01-06T02:35:17.423Z,10.40
2023-01-06T02:37:47.361Z,10.88
2023-01-06T02:40:22.060Z,12.23
2023-01-06T02:42:49.533Z,13.10
2023-01-06T02:45:24.121Z,14.52
2023-01-06T02:48:02.096Z,13.60
2023-01-06T02:50:39.778Z,14.23
2023-01-06T02:53:11.438Z,14.30
2023-01-06T02:55:52.759Z,15.43
2023-01-06T02:58:23.411Z,14.07
2023-01-06T03:00:53.098Z,15.10
2023-01-06T03:03:21.825Z,14.95
2023-01-06T03:05:51.794Z,13.98
2023-01-06T03:08:21.194Z,13.40
2023-01-06T03:10:50.075Z,13.45
2023-01-06T03:13:37.987Z,12.82
2023-01-06T03:16:05.373Z,11.63
2023-01-06T03:18:33.442Z,11.57
2023-01-06T03:21:03.432Z,11.15
2023-01-06T03:23:30.739Z,11.00
2023-01-06T03:25:58.327Z,10.27
2023-01-06T03:28:26.800Z,9.98
2023-01-06T03:31:13.598Z,9.40
2023-01-06T03:33:54.890Z,10.07
2023-01-06T03:36:26.896Z,9.48
2023-01-06T03:39:20.642Z,8.60
2023-01-06T03:42:27.490Z,8.77
2023-01-06T03:45:24.229Z,10.02
2023-01-06T03:48:04.093Z,9.13
2023-01-06T03:53:17.242Z,8.60
2023-01-06T03:55:48.195Z,8.32
2023-01-06T03:58:17.023Z,8.90
2023-01-06T04:00:45.022Z,7.40
2023-01-06T04:03:13.801Z,8.27
2023-01-06T04:05:42.796Z,7.65
2023-01-06T04:08:10.163Z,7.57
2023-01-06T04:10:38.649Z,7.38
2023-01-06T04:13:07.055Z,7.53
2023-01-06T04:15:35.208Z,7.55
2023-01-06T04:18:06.053Z,6.28
2023-01-06T04:20:36.637Z,6.72
2023-01-06T04:23:10.124Z,7.05
2023-01-06T04:25:39.871Z,6.85
2023-01-06T04:28:14.070Z,7.03
2023-01-06T04:30:42.602Z,7.10
2023-01-06T04:33:10.500Z,5.88
2023-01-06T04:35:39.863Z,6.70
2023-01-06T04:38:07.047Z,6.38
2023-01-06T04:40:34.198Z,6.70
2023-01-06T04:43:04.339Z,6.78
2023-01-06T04:45:31.558Z,7.38
2023-01-06T04:47:58.695Z,7.40
2023-01-06T04:50:25.768Z,6.72
2023-01-06T04:52:52.982Z,7.03
2023-01-06T04:55:20.040Z,7.32
2023-01-06T04:57:47.272Z,6.40
2023-01-06T05:00:14.702Z,5.60
2023-01-06T05:02:41.774Z,5.13
2023-01-06T05:05:09.940Z,5.65
2023-01-06T05:07:37.133Z,4.97
2023-01-06T05:10:05.604Z,5.00
2023-01-06T05:12:33.275Z,5.03
2023-01-06T05:15:00.365Z,4.65
2023-01-06T05:17:27.636Z,4.70
2023-01-06T05:19:54.765Z,5.30
2023-01-06T05:22:22.010Z,4.88
2023-01-06T05:24:49.176Z,4.72
2023-01-06T05:27:16.304Z,4.25
2023-01-06T05:29:43.451Z,4.10
2023-01-06T05:32:10.576Z,4.10
2023-01-06T05:34:37.716Z,3.92
2023-01-06T05:37:04.960Z,4.05
2023-01-06T05:39:32.016Z,3.38
2023-01-06T05:41:59.131Z,3.45
2023-01-06T05:44:26.275Z,2.83
2023-01-06T05:46:53.416Z,2.92
2023-01-06T05:49:20.583Z,2.63
2023-01-06T05:51:47.772Z,2.50
2023-01-06T05:54:14.999Z,2.47
2023-01-06T05:56:42.134Z,2.35
2023-01-06T05:59:09.274Z,2.55
2023-01-06T06:01:36.398Z,2.22
2023-01-06T06:04:03.694Z,1.88
2023-01-06T06:06:31.070Z,2.13
2023-01-06T06:08:58.762Z,2.00
2023-01-06T06:11:26.114Z,2.08
2023-01-06T06:13:54.060Z,2.10
2023-01-06T06:16:22.730Z,2.08
2023-01-06T06:18:51.075Z,2.10
2023-01-06T06:21:19.432Z,2.20
2023-01-06T06:23:46.527Z,2.05
2023-01-06T06:26:13.755Z,1.90
2023-01-06T06:28:41.300Z,1.85
2023-01-06T06:31:08.551Z,2.15
2023-01-06T06:33:36.242Z,2.10
2023-01-06T06:36:03.961Z,2.60
2023-01-06T06:38:31.192Z,2.30
2023-01-06T06:40:58.323Z,3.10
2023-01-06T06:43:25.433Z,2.40
2023-01-06T06:45:52.547Z,2.25
2023-01-06T06:48:19.664Z,2.42
2023-01-06T06:50:46.871Z,2.15
2023-01-06T06:53:14.013Z,2.55
2023-01-06T06:55:41.378Z,2.47
2023-01-06T06:58:08.526Z,2.40
2023-01-06T07:00:35.670Z,2.55
2023-01-06T07:03:02.820Z,2.45
2023-01-06T07:05:29.995Z,3.47
2023-01-06T07:07:57.156Z,2.70
2023-01-06T07:10:24.364Z,2.20
2023-01-06T07:12:51.453Z,2.63
2023-01-06T07:15:18.608Z,3.10
2023-01-06T07:17:46.203Z,2.95
2023-01-06T07:20:13.415Z,3.58
2023-01-06T07:22:41.221Z,3.33
2023-01-06T07:25:09.237Z,3.60
2023-01-06T07:27:36.955Z,3.80
2023-01-06T07:30:07.661Z,3.33
2023-01-06T07:32:35.111Z,3.50
2023-01-06T07:35:02.228Z,3.95
2023-01-06T07:37:29.401Z,4.00
2023-01-06T07:39:56.541Z,3.78
2023-01-06T07:42:23.671Z,4.07
2023-01-06T07:44:50.777Z,4.45
2023-01-06T07:47:18.103Z,4.22
2023-01-06T07:49:45.220Z,4.53
2023-01-06T07:52:12.355Z,4.15
2023-01-06T07:54:39.730Z,4.35
2023-01-06T07:57:06.879Z,4.57
2023-01-06T07:59:33.992Z,4.07
2023-01-06T08:02:01.197Z,5.18
2023-01-06T08:04:28.423Z,5.20
2023-01-06T08:06:55.671Z,5.10
2023-01-06T08:09:22.841Z,5.72
2023-01-06T08:11:50.369Z,5.13
2023-01-06T08:14:17.469Z,5.40
2023-01-06T08:16:44.628Z,5.03
2023-01-06T08:19:12.016Z,5.30
2023-01-06T08:21:39.160Z,5.60
2023-01-06T08:24:06.438Z,5.25
2023-01-06T08:26:33.562Z,4.93
2023-01-06T08:29:00.694Z,5.05
2023-01-06T08:31:27.953Z,5.28
2023-01-06T08:33:55.151Z,5.75
2023-01-06T08:36:25.455Z,4.90
2023-01-06T08:38:53.056Z,5.30
2023-01-06T08:41:20.689Z,5.78
2023-01-06T08:43:48.236Z,5.07
2023-01-06T08:46:17.126Z,5.32
2023-01-06T08:48:44.242Z,5.70
2023-01-06T08:51:12.682Z,5.85
2023-01-06T08:53:39.949Z,5.43
2023-01-06T08:56:12.545Z,4.80
2023-01-06T09:01:06.906Z,5.20
2023-01-06T09:03:34.388Z,5.65
2023-01-06T09:06:01.650Z,4.80
2023-01-06T09:08:28.896Z,5.43
2023-01-06T09:10:56.039Z,5.05
2023-01-06T09:13:23.195Z,3.45
2023-01-06T09:15:52.339Z,3.88
2023-01-06T09:18:19.441Z,3.13
2023-01-06T09:20:47.737Z,2.72
2023-01-06T09:23:14.932Z,2.67
2023-01-06T09:25:41.991Z,2.60
2023-01-06T09:28:10.552Z,4.13
2023-01-06T09:30:37.688Z,2.53
2023-01-06T09:33:04.885Z,2.70
2023-01-06T09:35:32.108Z,2.30
2023-01-06T09:37:59.262Z,1.92
2023-01-06T09:40:30.923Z,2.60
2023-01-06T09:43:03.048Z,2.13
2023-01-06T09:45:42.003Z,2.55
2023-01-06T09:48:12.136Z,2.05
2023-01-06T09:50:41.936Z,2.80
2023-01-06T09:53:11.756Z,3.33
2023-01-06T09:55:42.496Z,1.50
2023-01-06T09:58:13.360Z,1.75
2023-01-06T10:00:42.317Z,1.67
2023-01-06T10:03:13.636Z,1.80
2023-01-06T10:05:44.216Z,1.63
2023-01-06T10:08:34.660Z,1.40
2023-01-06T10:11:13.653Z,1.90
2023-01-06T10:13:54.257Z,1.90
2023-01-06T10:16:44.397Z,1.63
2023-01-06T10:19:23.884Z,2.05
2023-01-06T10:22:10.186Z,2.13
2023-01-06T10:25:00.915Z,1.63
2023-01-06T10:27:29.114Z,2.20
2023-01-06T10:29:57.331Z,1.65
2023-01-06T10:32:29.090Z,1.50
2023-01-06T10:34:57.559Z,2.03
2023-01-06T10:37:26.990Z,1.65
2023-01-06T10:40:00.103Z,2.17
2023-01-06T10:43:00.384Z,1.90
2023-01-06T10:45:34.759Z,1.35
2023-01-06T10:48:02.622Z,2.65
2023-01-06T10:50:29.830Z,2.20
2023-01-06T10:52:56.968Z,2.15
2023-01-06T10:55:26.790Z,1.83
2023-01-06T10:57:55.489Z,1.92
2023-01-06T11:00:24.035Z,1.88
2023-01-06T11:02:52.574Z,1.77
2023-01-06T11:05:21.235Z,1.83
2023-01-06T11:07:50.460Z,1.92
2023-01-06T11:10:38.749Z,1.75
2023-01-06T11:13:07.131Z,1.98
2023-01-06T11:15:39.453Z,1.73
2023-01-06T11:18:07.224Z,1.35
2023-01-06T11:20:35.288Z,1.67
2023-01-06T11:23:20.691Z,1.77
2023-01-06T11:26:00.932Z,2.10
2023-01-06T11:28:28.131Z,1.65
2023-01-06T11:30:59.064Z,2.40
2023-01-06T11:33:30.583Z,1.70
2023-01-06T11:35:58.312Z,2.72
2023-01-06T11:38:26.036Z,2.72
2023-01-06T11:40:54.201Z,1.90
2023-01-06T11:43:25.677Z,1.60
2023-01-06T11:45:56.154Z,1.60
2023-01-06T11:48:27.037Z,1.83
2023-01-06T11:50:58.855Z,1.70
2023-01-06T11:53:26.429Z,1.42
2023-01-06T11:56:02.388Z,1.45
2023-01-06T11:58:33.698Z,1.52
2023-01-06T12:01:06.450Z,1.88
2023-01-06T12:03:36.147Z,2.05
2023-01-06T12:06:06.091Z,1.60
2023-01-06T12:08:42.560Z,1.65
2023-01-06T12:11:18.843Z,2.03
2023-01-06T12:14:08.404Z,2.55
2023-01-06T12:16:33.231Z,1.70
2023-01-06T12:19:00.648Z,2.05
2023-01-06T12:21:32.046Z,1.63
2023-01-06T12:24:00.539Z,2.75
2023-01-06T12:26:27.915Z,2.30
2023-01-06T12:28:56.560Z,1.58
2023-01-06T12:31:35.932Z,1.60
2023-01-06T12:34:03.010Z,1.80
2023-01-06T12:36:40.867Z,2.58
2023-01-06T12:39:17.893Z,1.55
2023-01-06T12:41:48.645Z,1.67
2023-01-06T12:44:34.634Z,1.95
2023-01-06T12:47:13.028Z,1.50
2023-01-06T12:49:56.232Z,1.33
2023-01-06T12:52:25.746Z,1.40
2023-01-06T12:54:57.711Z,1.58
2023-01-06T12:57:43.617Z,2.00
2023-01-06T13:00:29.492Z,1.25
2023-01-06T13:03:16.889Z,1.50
2023-01-06T13:06:09.613Z,1.70
2023-01-06T13:08:55.335Z,1.63
2023-01-06T13:11:26.201Z,1.83
2023-01-06T13:14:06.270Z,1.60
2023-01-06T13:16:39.880Z,1.45
2023-01-06T13:19:22.128Z,1.60
2023-01-06T13:21:51.927Z,1.42
2023-01-06T13:24:19.135Z,1.73
2023-01-06T13:26:46.180Z,1.42
2023-01-06T13:29:22.417Z,1.42
2023-01-06T13:31:58.640Z,1.73
2023-01-06T13:34:31.648Z,1.52
2023-01-06T13:37:04.819Z,1.40
2023-01-06T13:39:37.385Z,1.25
2023-01-06T13:44:33.852Z,1.35
2023-01-06T13:47:05.948Z,1.45
2023-01-06T13:49:34.567Z,1.85
2023-01-06T13:52:01.699Z,1.27
2023-01-06T13:54:40.820Z,1.63
2023-01-06T13:57:23.049Z,1.60
2023-01-06T13:59:50.305Z,1.33
2023-01-06T14:02:35.938Z,1.50
2023-01-06T14:05:06.933Z,1.73
2023-01-06T14:07:37.917Z,1.63
2023-01-06T14:10:06.442Z,1.63
2023-01-06T14:12:34.774Z,2.00
2023-01-06T14:15:06.373Z,1.65
2023-01-06T14:17:39.061Z,1.25
2023-01-06T14:20:07.116Z,1.60
2023-01-06T14:22:34.547Z,2.13
2023-01-06T14:25:03.838Z,1.20
2023-01-06T14:27:47.561Z,2.15
2023-01-06T14:30:21.282Z,2.38
2023-01-06T14:32:48.417Z,2.53
2023-01-06T14:35:17.808Z,2.15
2023-01-06T14:37:50.681Z,2.63
2023-01-06T14:40:20.215Z,1.65
2023-01-06T14:42:47.605Z,1.55
2023-01-06T14:45:35.018Z,1.98
2023-01-06T14:48:04.636Z,2.40
2023-01-06T14:50:47.316Z,2.38
2023-01-06T14:53:19.668Z,1.98
2023-01-06T14:55:50.643Z,2.13
2023-01-06T14:58:47.227Z,1.95
2023-01-06T15:01:21.632Z,1.90
2023-01-06T15:03:54.936Z,1.50
2023-01-06T15:06:23.548Z,1.73
2023-01-06T15:08:50.741Z,2.08
2023-01-06T15:11:20.887Z,2.25
2023-01-06T15:13:48.246Z,2.00
2023-01-06T15:16:21.315Z,2.70
2023-01-06T15:18:49.573Z,3.70
2023-01-06T15:21:17.923Z,2.75
2023-01-06T15:23:47.427Z,2.13
2023-01-06T15:26:18.876Z,1.73
2023-01-06T15:29:05.826Z,2.42
2023-01-06T15:31:36.744Z,1.88
2023-01-06T15:34:06.296Z,3.03
2023-01-06T15:36:33.876Z,1.88
2023-01-06T15:39:02.682Z,1.92
2023-01-06T15:41:34.023Z,2.35
2023-01-06T15:44:02.090Z,2.17
2023-01-06T15:46:36.593Z,1.90
2023-01-06T15:49:03.982Z,2.40
2023-01-06T15:51:31.162Z,2.22
2023-01-06T15:53:59.095Z,2.17
2023-01-06T15:56:27.858Z,2.10
2023-01-06T15:58:56.226Z,1.70
2023-01-06T16:01:24.269Z,2.33
2023-01-06T16:03:52.871Z,1.83
2023-01-06T16:06:27.184Z,1.92
2023-01-06T16:08:54.344Z,1.92
2023-01-06T16:11:40.361Z,2.00
2023-01-06T16:14:24.583Z,1.83
2023-01-06T16:16:51.782Z,2.22
2023-01-06T16:19:20.743Z,2.20
2023-01-06T16:21:51.396Z,2.92
2023-01-06T16:24:23.415Z,1.90
2023-01-06T16:26:55.819Z,1.77
2023-01-06T16:29:31.455Z,2.17
2023-01-06T16:32:01.379Z,1.52
2023-01-06T16:34:31.720Z,2.05
2023-01-06T16:36:59.990Z,2.00
2023-01-06T16:39:27.859Z,1.90
2023-01-06T16:42:01.080Z,2.38
2023-01-06T16:44:31.829Z,1.95
2023-01-06T16:47:00.897Z,2.67
2023-01-06T16:49:29.706Z,2.92
2023-01-06T16:51:56.866Z,2.08
2023-01-06T16:54:23.973Z,2.20
2023-01-06T16:56:52.115Z,1.85
2023-01-06T16:59:21.981Z,2.30
2023-01-06T17:01:49.375Z,1.90
2023-01-06T17:04:16.708Z,2.78
2023-01-06T17:06:44.861Z,2.35
2023-01-06T17:09:17.831Z,2.20
2023-01-06T17:11:45.175Z,3.25
2023-01-06T17:14:17.094Z,2.50
2023-01-06T17:16:44.468Z,2.88
2023-01-06T17:19:19.946Z,2.65
2023-01-06T17:21:48.456Z,2.75
2023-01-06T17:24:17.532Z,2.65
2023-01-06T17:26:49.721Z,2.90
2023-01-06T17:29:17.968Z,2.30
2023-01-06T17:31:46.260Z,2.60
2023-01-06T17:34:16.182Z,3.33
2023-01-06T17:36:44.844Z,2.88
2023-01-06T17:39:15.020Z,2.97
2023-01-06T17:41:42.149Z,2.70
2023-01-06T17:44:16.670Z,3.08
2023-01-06T17:46:43.852Z,3.05
2023-01-06T17:49:19.999Z,2.80
2023-01-06T17:51:47.259Z,2.63
2023-01-06T17:54:42.457Z,2.80
2023-01-06T17:57:18.679Z,2.97
2023-01-06T17:59:46.223Z,3.22
2023-01-06T18:02:19.449Z,2.85
2023-01-06T18:04:47.199Z,2.28
2023-01-06T18:07:14.382Z,3.50
2023-01-06T18:09:41.504Z,3.10
2023-01-06T18:12:13.636Z,2.63
2023-01-06T18:14:42.450Z,2.78
2023-01-06T18:17:20.548Z,3.05
2023-01-06T18:19:47.639Z,3.28
2023-01-06T18:22:24.695Z,2.60
2023-01-06T18:24:52.899Z,3.45
2023-01-06T18:27:27.595Z,3.10
2023-01-06T18:29:57.077Z,3.20
2023-01-06T18:32:26.265Z,2.50
2023-01-06T18:34:57.862Z,2.72
2023-01-06T18:37:26.685Z,2.85
2023-01-06T18:39:56.908Z,3.10
2023-01-06T18:42:28.736Z,3.20
2023-01-06T18:45:04.034Z,2.67
2023-01-06T18:47:31.749Z,3.78
2023-01-06T18:50:19.736Z,2.40
2023-01-06T18:52:47.071Z,2.97
2023-01-06T18:55:35.135Z,2.92
2023-01-06T18:58:22.526Z,2.50
2023-01-06T19:00:54.148Z,2.88
2023-01-06T19:03:36.766Z,3.13
2023-01-06T19:06:09.839Z,3.72
2023-01-06T19:08:38.920Z,3.58
2023-01-06T19:11:19.547Z,3.65
2023-01-06T19:13:47.133Z,3.17
2023-01-06T19:16:32.990Z,3.45
2023-01-06T19:19:14.095Z,2.75
2023-01-06T19:21:41.193Z,3.35
2023-01-06T19:24:24.663Z,3.63
2023-01-06T19:26:51.759Z,3.80
2023-01-06T19:29:18.955Z,4.20
2023-01-06T19:31:54.113Z,3.88
2023-01-06T19:34:22.495Z,4.28
2023-01-06T19:36:53.451Z,3.80
2023-01-06T19:39:25.019Z,3.30
2023-01-06T19:41:56.544Z,4.07
2023-01-06T19:44:32.238Z,4.00
2023-01-06T19:47:01.037Z,4.60
2023-01-06T19:49:39.497Z,5.07
2023-01-06T19:52:25.181Z,5.22
2023-01-06T19:54:52.483Z,5.72
2023-01-06T19:57:26.841Z,5.05
2023-01-06T19:59:54.452Z,4.80
2023-01-06T20:02:29.923Z,5.25
2023-01-06T20:04:57.540Z,5.60
2023-01-06T20:07:24.744Z,5.93
2023-01-06T20:09:51.891Z,6.32
2023-01-06T20:12:19.050Z,6.35
2023-01-06T20:14:46.202Z,6.72
2023-01-06T20:17:14.615Z,6.35
2023-01-06T20:19:41.813Z,7.80
2023-01-06T20:22:08.913Z,7.72
2023-01-06T20:24:36.063Z,7.72
2023-01-06T20:27:03.275Z,8.40
2023-01-06T20:29:30.505Z,8.43
2023-01-06T20:31:57.756Z,8.73
2023-01-06T20:34:24.888Z,8.93
2023-01-06T20:36:52.479Z,8.77
2023-01-06T20:39:19.772Z,9.23
2023-01-06T20:41:46.933Z,9.07
2023-01-06T20:44:14.191Z,10.43
2023-01-06T20:46:41.521Z,9.02
2023-01-06T20:49:08.698Z,9.68
2023-01-06T20:51:35.781Z,9.60
2023-01-06T20:54:04.028Z,10.32
2023-01-06T20:56:31.311Z,11.00
2023-01-06T20:58:58.398Z,11.55
2023-01-06T21:01:25.707Z,11.82
2023-01-06T21:03:52.892Z,13.27
2023-01-06T21:06:19.992Z,11.57
2023-01-06T21:08:47.274Z,11.00
2023-01-06T21:11:14.482Z,11.80
2023-01-06T21:13:41.580Z,11.63
2023-01-06T21:16:08.815Z,12.05
2023-01-06T21:18:35.930Z,13.00
2023-01-06T21:21:03.060Z,11.02
2023-01-06T21:23:30.437Z,12.88
2023-01-06T21:25:57.563Z,12.60
2023-01-06T21:28:24.641Z,13.40
2023-01-06T21:30:51.821Z,11.90
2023-01-06T21:33:21.463Z,13.32
2023-01-06T21:35:49.014Z,13.27
2023-01-06T21:38:16.183Z,13.88
2023-01-06T21:40:43.262Z,12.77
2023-01-06T21:43:10.405Z,13.88
2023-01-06T21:45:41.598Z,13.35
2023-01-06T21:48:09.420Z,13.65
2023-01-06T21:50:40.719Z,12.95
2023-01-06T21:53:08.550Z,14.43
2023-01-06T21:55:35.765Z,14.77
2023-01-06T21:58:03.143Z,13.50
2023-01-06T22:00:30.222Z,14.65
2023-01-06T22:02:57.436Z,14.65
2023-01-06T22:05:24.600Z,15.30
2023-01-06T22:07:53.497Z,16.45
2023-01-06T22:10:22.502Z,15.48
2023-01-06T22:12:50.321Z,15.90
2023-01-06T22:15:17.407Z,16.60
2023-01-06T22:17:44.665Z,15.40
2023-01-06T22:20:12.530Z,15.68
2023-01-06T22:22:40.326Z,15.73
2023-01-06T22:25:07.774Z,15.90
2023-01-06T22:27:34.922Z,15.10
2023-01-06T22:30:02.239Z,15.73
2023-01-06T22:32:29.581Z,14.63
2023-01-06T22:34:56.692Z,14.95
2023-01-06T22:37:23.834Z,13.95
2023-01-06T22:39:51.014Z,13.73
2023-01-06T22:42:18.099Z,14.77
2023-01-06T22:44:45.323Z,14.50
2023-01-06T22:47:12.475Z,14.02
2023-01-06T22:49:39.669Z,12.52
2023-01-06T22:52:06.884Z,13.40
2023-01-06T22:54:34.084Z,12.95
2023-01-06T22:57:01.334Z,13.27
2023-01-06T22:59:28.477Z,13.30
2023-01-06T23:01:55.850Z,13.85
2023-01-06T23:04:23.091Z,13.40
2023-01-06T23:06:50.220Z,12.95
2023-01-06T23:09:17.450Z,13.52
2023-01-06T23:11:44.676Z,13.38
2023-01-06T23:14:13.412Z,12.23
2023-01-06T23:16:41.870Z,13.68
2023-01-06T23:19:11.950Z,12.10
2023-01-06T23:21:40.052Z,12.50
2023-01-06T23:24:11.215Z,11.57
2023-01-06T23:26:39.739Z,12.68
2023-01-06T23:29:07.096Z,13.52
2023-01-06T23:31:36.525Z,12.82
2023-01-06T23:34:05.640Z,12.65
2023-01-06T23:36:32.785Z,12.20
2023-01-06T23:39:01.239Z,12.75
2023-01-06T23:41:29.636Z,13.00
2023-01-06T23:43:57.351Z,13.40
2023-01-06T23:46:26.159Z,13.38
2023-01-06T23:48:54.064Z,13.25
2023-01-06T23:51:22.264Z,12.85
2023-01-06T23:53:49.477Z,13.88
2023-01-06T23:56:17.744Z,13.95
2023-01-06T23:58:45.634Z,13.90
